createdAt,value
2023-08-25T00:00:21.810Z,9.20
2023-08-25T00:03:15.548Z,9.10
2023-08-25T00:05:49.530Z,9.30
2023-08-25T00:08:22.812Z,8.30
2023-08-25T00:10:55.910Z,9.10
2023-08-25T00:13:28.864Z,9.00
2023-08-25T00:16:02.338Z,9.90
2023-08-25T00:18:36.852Z,8.90
2023-08-25T00:21:09.815Z,9.40
2023-08-25T00:23:42.806Z,9.50
2023-08-25T00:26:16.864Z,9.30
2023-08-25T00:28:50.395Z,10.30
2023-08-25T00:31:23.482Z,10.20
2023-08-25T00:33:56.364Z,8.90
2023-08-25T00:36:29.388Z,9.40
2023-08-25T00:39:02.329Z,9.20
2023-08-25T00:41:35.750Z,9.00
2023-08-25T00:44:08.776Z,8.70
2023-08-25T00:46:42.371Z,8.70
2023-08-25T00:49:19.846Z,9.40
2023-08-25T00:51:56.079Z,8.60
2023-08-25T00:54:37.037Z,9.50
2023-08-25T00:57:10.916Z,9.60
2023-08-25T00:59:45.654Z,9.40
2023-08-25T01:02:18.636Z,9.20
2023-08-25T01:04:52.028Z,9.40
2023-08-25T01:07:25.946Z,9.20
2023-08-25T01:09:59.150Z,9.50
2023-08-25T01:12:43.946Z,9.80
2023-08-25T01:15:20.936Z,10.00
2023-08-25T01:17:59.434Z,9.50
2023-08-25T01:20:37.880Z,9.20
2023-08-25T01:23:28.996Z,8.80
2023-08-25T01:26:15.411Z,9.60
2023-08-25T01:29:07.602Z,9.40
2023-08-25T01:31:45.934Z,9.20
2023-08-25T01:34:18.941Z,7.60
2023-08-25T01:37:00.370Z,8.90
2023-08-25T01:39:34.774Z,8.60
2023-08-25T01:42:10.123Z,8.70
2023-08-25T01:44:44.995Z,8.80
2023-08-25T01:47:20.354Z,8.40
2023-08-25T01:49:53.589Z,7.80
2023-08-25T01:52:26.631Z,8.20
2023-08-25T01:54:59.439Z,7.70
2023-08-25T01:57:33.326Z,8.20
2023-08-25T02:00:08.736Z,8.30
2023-08-25T02:02:48.283Z,8.20
2023-08-25T02:05:21.408Z,8.70
2023-08-25T02:07:54.592Z,7.60
2023-08-25T02:10:28.013Z,8.20
2023-08-25T02:13:01.031Z,7.80
2023-08-25T02:15:33.975Z,7.90
2023-08-25T02:18:07.617Z,8.10
2023-08-25T02:20:42.136Z,8.50
2023-08-25T02:23:15.044Z,8.30
2023-08-25T02:25:48.261Z,7.30
2023-08-25T02:28:21.121Z,8.40
2023-08-25T02:30:53.947Z,8.40
2023-08-25T02:33:26.909Z,7.80
2023-08-25T02:35:59.802Z,8.60
2023-08-25T02:38:33.758Z,8.50
2023-08-25T02:41:06.715Z,7.70
2023-08-25T02:43:39.898Z,8.10
2023-08-25T02:46:13.222Z,8.10
2023-08-25T02:48:45.996Z,7.60
2023-08-25T02:51:18.843Z,8.10
2023-08-25T02:53:51.635Z,7.40
2023-08-25T02:56:24.563Z,8.10
2023-08-25T02:58:57.406Z,8.20
2023-08-25T03:01:30.357Z,8.90
2023-08-25T03:04:03.953Z,8.60
2023-08-25T03:06:37.867Z,8.20
2023-08-25T03:09:12.103Z,8.90
2023-08-25T03:11:46.598Z,9.20
2023-08-25T03:14:21.386Z,8.90
2023-08-25T03:16:54.835Z,8.10
2023-08-25T03:19:27.919Z,8.10
2023-08-25T03:22:00.801Z,8.10
2023-08-25T03:24:35.022Z,8.30
2023-08-25T03:27:08.392Z,8.70
2023-08-25T03:29:41.588Z,8.50
2023-08-25T03:32:14.599Z,8.20
2023-08-25T03:34:47.557Z,8.00
2023-08-25T03:37:20.498Z,7.80
2023-08-25T03:39:53.570Z,8.20
2023-08-25T03:42:27.246Z,8.00
2023-08-25T03:45:01.290Z,8.00
2023-08-25T03:47:35.355Z,8.50
2023-08-25T03:50:10.899Z,7.90
2023-08-25T03:53:29.675Z,9.20
2023-08-25T03:56:25.845Z,9.00
2023-08-25T03:59:42.603Z,8.20
2023-08-25T04:03:48.446Z,7.90
2023-08-25T04:07:16.740Z,8.00
2023-08-25T04:19:19.349Z,8.90
2023-08-25T04:26:39.218Z,8.10
2023-08-25T04:41:07.627Z,8.70
2023-08-25T04:48:49.105Z,8.30
2023-08-25T04:51:51.359Z,8.80
2023-08-25T04:54:29.452Z,9.80
2023-08-25T05:01:42.796Z,8.90
2023-08-25T05:05:17.943Z,8.70
2023-08-25T05:12:26.132Z,8.80
2023-08-25T05:16:30.192Z,8.50
2023-08-25T05:19:08.046Z,9.20
2023-08-25T05:21:41.520Z,9.50
2023-08-25T05:24:41.833Z,10.80
2023-08-25T05:27:15.066Z,9.50
2023-08-25T05:30:01.508Z,9.20
2023-08-25T05:33:04.756Z,7.90
2023-08-25T05:36:14.350Z,9.10
2023-08-25T05:39:30.326Z,9.20
2023-08-25T05:42:03.499Z,7.70
2023-08-25T05:44:36.847Z,8.50
2023-08-25T05:47:13.124Z,8.20
2023-08-25T05:49:48.586Z,8.20
2023-08-25T05:52:24.877Z,8.70
2023-08-25T05:54:58.028Z,8.90
2023-08-25T05:57:31.514Z,9.00
2023-08-25T06:00:07.698Z,8.50
2023-08-25T06:02:47.015Z,8.40
2023-08-25T06:05:20.872Z,8.70
2023-08-25T06:07:54.059Z,7.90
2023-08-25T06:10:27.390Z,7.70
2023-08-25T06:13:00.474Z,7.60
2023-08-25T06:15:33.606Z,7.30
2023-08-25T06:18:08.693Z,7.60
2023-08-25T06:20:43.166Z,7.80
2023-08-25T06:23:16.768Z,7.10
2023-08-25T06:25:51.310Z,7.10
2023-08-25T06:28:24.439Z,7.20
2023-08-25T06:30:57.856Z,7.10
2023-08-25T06:33:33.083Z,6.20
2023-08-25T06:36:07.044Z,6.40
2023-08-25T06:38:54.091Z,7.40
2023-08-25T06:41:29.724Z,7.10
2023-08-25T06:44:04.298Z,6.70
2023-08-25T06:46:37.488Z,7.00
2023-08-25T06:49:12.961Z,6.00
2023-08-25T06:51:50.190Z,6.10
2023-08-25T06:54:31.394Z,6.20
2023-08-25T06:57:16.504Z,5.80
2023-08-25T06:59:57.550Z,6.30
2023-08-25T07:02:32.141Z,6.40
2023-08-25T07:05:05.601Z,6.60
2023-08-25T07:08:23.762Z,6.20
2023-08-25T07:11:14.662Z,6.20
2023-08-25T07:13:48.099Z,5.60
2023-08-25T07:16:21.905Z,5.90
2023-08-25T07:18:55.488Z,6.30
2023-08-25T07:21:29.318Z,6.10
2023-08-25T07:24:02.964Z,6.40
2023-08-25T07:26:36.235Z,6.00
2023-08-25T07:29:09.725Z,6.20
2023-08-25T07:31:42.805Z,6.00
2023-08-25T07:34:15.785Z,6.20
2023-08-25T07:36:49.149Z,6.30
2023-08-25T07:39:22.349Z,5.90
2023-08-25T07:41:55.789Z,5.50
2023-08-25T07:44:29.358Z,5.40
2023-08-25T07:47:05.951Z,5.70
2023-08-25T07:49:39.413Z,5.40
2023-08-25T07:52:12.436Z,5.70
2023-08-25T07:54:45.497Z,5.50
2023-08-25T07:57:18.522Z,5.00
2023-08-25T07:59:51.383Z,5.30
2023-08-25T08:02:25.030Z,5.20
2023-08-25T08:04:58.089Z,5.20
2023-08-25T08:07:31.313Z,5.30
2023-08-25T08:10:05.240Z,5.20
2023-08-25T08:12:38.272Z,5.40
2023-08-25T08:15:13.845Z,5.10
2023-08-25T08:17:48.541Z,5.00
2023-08-25T08:20:22.642Z,5.10
2023-08-25T08:22:56.060Z,4.80
2023-08-25T08:25:31.055Z,4.60
2023-08-25T08:28:04.063Z,4.80
2023-08-25T08:30:37.048Z,4.50
2023-08-25T08:33:10.814Z,4.80
2023-08-25T08:35:43.839Z,4.80
2023-08-25T08:38:17.399Z,4.50
2023-08-25T08:40:51.834Z,4.50
2023-08-25T08:43:24.836Z,4.50
2023-08-25T08:46:34.127Z,4.30
2023-08-25T08:49:11.421Z,4.00
2023-08-25T08:51:45.713Z,4.20
2023-08-25T08:54:21.146Z,4.40
2023-08-25T08:56:55.150Z,4.10
2023-08-25T09:06:25.496Z,4.20
2023-08-25T09:09:50.636Z,4.00
2023-08-25T09:13:21.237Z,4.20
2023-08-25T09:16:03.593Z,4.00
2023-08-25T09:30:13.565Z,3.30
2023-08-25T09:33:11.257Z,3.70
2023-08-25T09:40:29.111Z,3.40
2023-08-25T09:47:23.966Z,3.30
2023-08-25T09:49:57.634Z,3.10
2023-08-25T09:52:31.226Z,3.50
2023-08-25T09:59:08.608Z,3.80
2023-08-25T10:02:10.893Z,3.30
2023-08-25T10:04:53.384Z,3.40
2023-08-25T10:07:57.906Z,3.00
2023-08-25T10:18:08.603Z,3.00
2023-08-25T10:24:30.416Z,2.70
2023-08-25T10:27:05.318Z,2.40
2023-08-25T10:29:38.415Z,2.50
2023-08-25T10:46:39.633Z,3.00
2023-08-25T10:49:33.797Z,3.50
2023-08-25T10:52:14.674Z,3.20
2023-08-25T11:07:45.646Z,2.80
2023-08-25T11:10:20.827Z,2.90
2023-08-25T11:13:09.625Z,3.30
2023-08-25T11:15:44.616Z,2.70
2023-08-25T11:18:23.797Z,3.30
2023-08-25T11:20:57.119Z,3.50
2023-08-25T11:24:10.232Z,3.20
2023-08-25T11:30:54.735Z,3.30
2023-08-25T11:33:28.762Z,3.30
2023-08-25T11:36:19.962Z,3.60
2023-08-25T11:38:55.945Z,3.20
2023-08-25T11:41:29.524Z,2.90
2023-08-25T11:44:20.725Z,3.20
2023-08-25T11:47:00.569Z,3.10
2023-08-25T11:49:35.764Z,3.50
2023-08-25T11:52:09.982Z,3.10
2023-08-25T11:55:18.297Z,3.50
2023-08-25T11:58:45.885Z,3.40
2023-08-25T12:02:35.236Z,3.30
2023-08-25T12:06:07.650Z,3.30
2023-08-25T12:09:04.179Z,3.50
2023-08-25T12:11:57.189Z,3.30
2023-08-25T12:15:11.930Z,3.50
2023-08-25T12:17:57.874Z,3.40
2023-08-25T12:21:08.711Z,2.90
2023-08-25T12:24:22.277Z,3.20
2023-08-25T12:27:09.804Z,3.30
2023-08-25T12:29:50.702Z,2.70
2023-08-25T12:32:59.033Z,3.10
2023-08-25T12:36:14.953Z,2.70
2023-08-25T12:43:04.640Z,3.00
2023-08-25T12:49:19.226Z,2.90
2023-08-25T12:52:22.194Z,2.80
2023-08-25T12:55:38.190Z,2.90
2023-08-25T12:58:12.244Z,2.60
2023-08-25T13:01:06.163Z,2.70
2023-08-25T13:04:25.066Z,3.40
2023-08-25T13:06:58.915Z,2.90
2023-08-25T13:09:33.898Z,3.00
2023-08-25T13:12:19.668Z,3.10
2023-08-25T13:15:23.484Z,2.90
2023-08-25T13:18:18.487Z,3.10
2023-08-25T13:20:56.583Z,3.20
2023-08-25T13:24:09.303Z,3.90
2023-08-25T13:27:28.775Z,2.90
2023-08-25T13:30:47.410Z,3.30
2023-08-25T13:33:36.480Z,3.20
2023-08-25T13:36:17.034Z,2.80
2023-08-25T13:39:14.153Z,2.90
2023-08-25T13:42:16.764Z,2.80
2023-08-25T13:45:11.768Z,3.10
2023-08-25T13:48:17.345Z,3.30
2023-08-25T13:50:51.389Z,3.60
2023-08-25T13:53:24.854Z,3.10
2023-08-25T13:56:01.523Z,3.30
2023-08-25T13:58:35.931Z,3.80
2023-08-25T14:01:09.017Z,3.40
2023-08-25T14:04:09.409Z,3.50
2023-08-25T14:06:52.741Z,3.30
2023-08-25T14:09:25.879Z,3.50
2023-08-25T14:11:59.052Z,3.70
2023-08-25T14:15:55.005Z,3.80
2023-08-25T14:22:48.616Z,3.20
2023-08-25T14:25:45.645Z,3.50
2023-08-25T14:29:00.787Z,3.30
2023-08-25T14:31:41.632Z,3.40
2023-08-25T14:34:15.402Z,3.40
2023-08-25T14:36:48.581Z,3.20
2023-08-25T14:39:22.120Z,3.00
2023-08-25T14:41:57.565Z,3.40
2023-08-25T14:45:25.072Z,2.90
2023-08-25T14:52:54.032Z,2.90
2023-08-25T14:55:32.979Z,2.40
2023-08-25T14:58:18.466Z,2.50
2023-08-25T15:01:33.779Z,2.50
2023-08-25T15:08:25.165Z,2.60
2023-08-25T15:11:29.654Z,2.80
2023-08-25T15:14:06.780Z,3.20
2023-08-25T15:16:41.050Z,2.90
2023-08-25T15:19:15.305Z,2.50
2023-08-25T15:21:48.706Z,3.00
2023-08-25T15:24:22.286Z,2.80
2023-08-25T15:26:55.651Z,2.50
2023-08-25T15:29:47.211Z,3.10
2023-08-25T15:32:46.814Z,3.10
2023-08-25T15:35:50.561Z,2.80
2023-08-25T15:38:51.493Z,2.70
2023-08-25T15:42:19.878Z,2.80
2023-08-25T15:44:55.572Z,3.00
2023-08-25T15:51:47.587Z,3.00
2023-08-25T15:58:05.891Z,2.30
2023-08-25T15:58:42.613Z,2.90
2023-08-25T16:02:24.419Z,3.30
2023-08-25T16:05:32.671Z,3.40
2023-08-25T16:09:08.840Z,3.00
2023-08-25T16:12:04.148Z,2.70
2023-08-25T16:14:45.855Z,2.90
2023-08-25T16:17:27.331Z,3.40
2023-08-25T16:20:42.376Z,3.10
2023-08-25T16:23:49.970Z,3.30
2023-08-25T16:27:02.220Z,3.10
2023-08-25T16:29:55.723Z,3.00
2023-08-25T16:32:57.706Z,3.10
2023-08-25T16:35:49.641Z,3.20
2023-08-25T16:38:33.703Z,4.00
2023-08-25T16:41:12.556Z,4.00
2023-08-25T16:44:16.474Z,3.60
2023-08-25T16:46:55.466Z,3.20
2023-08-25T16:49:49.560Z,3.70
2023-08-25T16:52:29.476Z,3.40
2023-08-25T16:55:10.437Z,3.30
2023-08-25T16:57:48.139Z,3.40
2023-08-25T17:00:31.006Z,3.60
2023-08-25T17:03:11.551Z,3.30
2023-08-25T17:05:54.955Z,3.70
2023-08-25T17:08:41.581Z,3.30
2023-08-25T17:11:19.671Z,3.40
2023-08-25T17:13:57.947Z,3.60
2023-08-25T17:16:50.837Z,3.50
2023-08-25T17:19:29.612Z,4.00
2023-08-25T17:25:19.321Z,4.50
2023-08-25T17:28:13.820Z,4.90
2023-08-25T17:31:04.919Z,4.60
2023-08-25T17:33:44.124Z,4.90
2023-08-25T17:36:27.402Z,4.50
2023-08-25T17:39:05.583Z,4.20
2023-08-25T17:41:41.213Z,4.60
2023-08-25T17:44:15.477Z,4.40
2023-08-25T17:46:48.532Z,4.40
2023-08-25T17:49:21.891Z,4.60
2023-08-25T17:51:55.132Z,4.30
2023-08-25T17:54:28.363Z,4.00
2023-08-25T17:57:02.941Z,4.30
2023-08-25T17:59:39.219Z,4.40
2023-08-25T18:02:16.136Z,3.90
2023-08-25T18:04:50.539Z,4.10
2023-08-25T18:07:34.277Z,3.80
2023-08-25T18:10:12.300Z,4.10
2023-08-25T18:12:51.604Z,4.10
2023-08-25T18:15:40.652Z,3.90
2023-08-25T18:18:48.684Z,3.70
2023-08-25T18:21:53.114Z,3.60
2023-08-25T18:24:29.794Z,3.90
2023-08-25T18:27:06.225Z,4.10
2023-08-25T18:29:40.305Z,4.50
2023-08-25T18:32:13.774Z,4.20
2023-08-25T18:34:48.129Z,4.20
2023-08-25T18:37:21.519Z,4.50
2023-08-25T18:40:06.152Z,4.10
2023-08-25T18:42:46.469Z,4.00
2023-08-25T18:45:22.930Z,3.80
2023-08-25T18:47:56.257Z,3.90
2023-08-25T18:50:39.783Z,4.40
2023-08-25T18:53:37.081Z,5.00
2023-08-25T18:56:19.264Z,5.00
2023-08-25T18:59:01.889Z,4.70
2023-08-25T19:01:41.650Z,5.00
2023-08-25T19:04:28.204Z,4.40
2023-08-25T19:07:17.027Z,4.70
2023-08-25T19:10:32.901Z,4.80
2023-08-25T19:13:08.412Z,5.00
2023-08-25T19:15:56.119Z,5.80
2023-08-25T19:18:32.830Z,4.80
2023-08-25T19:21:08.920Z,5.30
2023-08-25T19:23:44.727Z,4.50
2023-08-25T19:26:18.803Z,5.10
2023-08-25T19:28:53.818Z,5.50
2023-08-25T19:31:30.956Z,6.30
2023-08-25T19:34:05.478Z,5.40
2023-08-25T19:36:41.513Z,5.40
2023-08-25T19:39:17.383Z,5.50
2023-08-25T19:41:53.374Z,5.10
2023-08-25T19:44:50.408Z,4.80
2023-08-25T19:48:09.633Z,4.90
2023-08-25T19:55:13.366Z,4.50
2023-08-25T19:58:11.790Z,4.80
2023-08-25T20:00:57.117Z,4.30
2023-08-25T20:03:34.056Z,4.50
2023-08-25T20:06:09.964Z,4.80
2023-08-25T20:08:48.272Z,5.10
2023-08-25T20:11:25.548Z,4.90
2023-08-25T20:14:01.565Z,5.20
2023-08-25T20:16:38.041Z,5.00
2023-08-25T20:19:13.944Z,5.40
2023-08-25T20:21:51.581Z,4.80
2023-08-25T20:24:25.478Z,5.60
2023-08-25T20:27:01.260Z,5.20
2023-08-25T20:29:36.805Z,5.30
2023-08-25T20:32:11.749Z,5.60
2023-08-25T20:34:49.663Z,5.20
2023-08-25T20:37:25.615Z,5.30
2023-08-25T20:40:00.422Z,5.40
2023-08-25T20:42:34.959Z,5.60
2023-08-25T20:45:12.172Z,5.20
2023-08-25T20:47:48.067Z,5.70
2023-08-25T20:50:22.945Z,5.50
2023-08-25T20:52:57.210Z,5.60
2023-08-25T20:55:31.657Z,5.60
2023-08-25T20:58:06.062Z,5.90
2023-08-25T21:00:39.494Z,6.20
2023-08-25T21:03:14.239Z,5.60
2023-08-25T21:05:47.518Z,5.60
2023-08-25T21:08:21.139Z,5.50
2023-08-25T21:10:55.875Z,4.90
2023-08-25T21:13:29.369Z,5.40
2023-08-25T21:16:03.707Z,6.40
2023-08-25T21:18:37.272Z,5.80
2023-08-25T21:21:11.320Z,6.10
2023-08-25T21:24:31.361Z,6.00
2023-08-25T21:27:07.753Z,5.40
2023-08-25T21:29:45.197Z,5.50
2023-08-25T21:32:20.860Z,6.10
2023-08-25T21:34:54.923Z,5.90
2023-08-25T21:37:28.581Z,5.50
2023-08-25T21:40:02.101Z,5.50
2023-08-25T21:42:35.648Z,5.50
2023-08-25T21:45:10.798Z,5.30
2023-08-25T21:47:46.623Z,5.20
2023-08-25T21:50:20.716Z,4.70
2023-08-25T21:52:54.314Z,4.90
2023-08-25T21:55:28.574Z,3.80
2023-08-25T21:58:01.903Z,4.40
2023-08-25T22:00:36.053Z,4.20
2023-08-25T22:03:09.379Z,4.20
2023-08-25T22:05:43.204Z,3.80
2023-08-25T22:08:19.306Z,3.80
2023-08-25T22:10:52.893Z,4.10
2023-08-25T22:13:26.447Z,3.80
2023-08-25T22:16:04.584Z,4.00
2023-08-25T22:18:38.162Z,3.90
2023-08-25T22:21:11.760Z,4.10
2023-08-25T22:23:44.962Z,4.40
2023-08-25T22:26:18.933Z,4.20
2023-08-25T22:28:52.236Z,4.10
2023-08-25T22:31:25.787Z,4.30
2023-08-25T22:36:35.709Z,4.40
2023-08-25T22:39:09.665Z,4.10
2023-08-25T22:41:42.896Z,4.30
2023-08-25T22:44:16.323Z,4.40
2023-08-25T22:46:49.777Z,3.90
2023-08-25T22:49:23.556Z,4.20
2023-08-25T22:51:58.447Z,5.40
2023-08-25T22:54:32.441Z,4.50
2023-08-25T22:57:07.219Z,4.10
2023-08-25T22:59:42.002Z,4.50
2023-08-25T23:02:15.469Z,4.80
2023-08-25T23:04:49.335Z,5.60
2023-08-25T23:07:22.504Z,4.80
2023-08-25T23:09:55.833Z,5.10
2023-08-25T23:12:29.635Z,4.70
2023-08-25T23:15:04.224Z,4.40
2023-08-25T23:17:38.160Z,4.20
2023-08-25T23:20:13.457Z,4.50
2023-08-25T23:22:46.963Z,3.60
2023-08-25T23:25:23.011Z,3.80
2023-08-25T23:27:58.285Z,4.10
2023-08-25T23:30:32.522Z,3.80
2023-08-25T23:33:06.072Z,4.40
2023-08-25T23:35:40.296Z,3.80
2023-08-25T23:38:15.077Z,3.80
2023-08-25T23:40:57.194Z,3.90
2023-08-25T23:43:30.567Z,4.00
2023-08-25T23:46:08.845Z,4.30
2023-08-25T23:48:41.976Z,3.80
2023-08-25T23:51:15.383Z,3.80
2023-08-25T23:53:48.810Z,3.50
2023-08-25T23:56:22.380Z,3.40
2023-08-25T23:58:56.218Z,3.70
